sensor_id;sensor_type;location;lat;lon;timestamp;P1;durP1;ratioP1;P2;durP2;ratioP2
11139;SDS011;5624;49.388;11.350;2022-11-11T00:00:14;7.97;;;4.87;;
11139;SDS011;5624;49.388;11.350;2022-11-11T00:02:40;7.17;;;5.23;;
11139;SDS011;5624;49.388;11.350;2022-11-11T00:05:06;8.37;;;5.10;;
11139;SDS011;5624;49.388;11.350;2022-11-11T00:07:32;7.47;;;5.20;;
11139;SDS011;5624;49.388;11.350;2022-11-11T00:09:57;11.67;;;6.20;;
11139;SDS011;5624;49.388;11.350;2022-11-11T00:12:23;5.60;;;4.67;;
11139;SDS011;5624;49.388;11.350;2022-11-11T00:14:48;10.43;;;5.30;;
11139;SDS011;5624;49.388;11.350;2022-11-11T00:17:14;7.03;;;4.70;;
11139;SDS011;5624;49.388;11.350;2022-11-11T00:19:58;6.53;;;4.57;;
11139;SDS011;5624;49.388;11.350;2022-11-11T00:22:43;8.33;;;5.03;;
11139;SDS011;5624;49.388;11.350;2022-11-11T00:25:27;6.57;;;4.57;;
11139;SDS011;5624;49.388;11.350;2022-11-11T00:27:52;9.57;;;5.03;;
11139;SDS011;5624;49.388;11.350;2022-11-11T00:30:18;13.30;;;5.20;;
11139;SDS011;5624;49.388;11.350;2022-11-11T00:32:44;9.53;;;4.80;;
11139;SDS011;5624;49.388;11.350;2022-11-11T00:35:10;8.97;;;5.90;;
11139;SDS011;5624;49.388;11.350;2022-11-11T00:37:54;10.77;;;5.43;;
11139;SDS011;5624;49.388;11.350;2022-11-11T00:40:30;6.67;;;4.87;;
11139;SDS011;5624;49.388;11.350;2022-11-11T00:42:55;15.07;;;5.87;;
11139;SDS011;5624;49.388;11.350;2022-11-11T00:45:21;6.97;;;4.47;;
11139;SDS011;5624;49.388;11.350;2022-11-11T00:47:46;8.53;;;5.43;;
11139;SDS011;5624;49.388;11.350;2022-11-11T00:50:31;10.47;;;5.60;;
11139;SDS011;5624;49.388;11.350;2022-11-11T00:53:19;8.90;;;5.23;;
11139;SDS011;5624;49.388;11.350;2022-11-11T00:55:46;12.90;;;5.70;;
11139;SDS011;5624;49.388;11.350;2022-11-11T00:58:12;7.03;;;4.80;;
11139;SDS011;5624;49.388;11.350;2022-11-11T01:00:37;7.70;;;4.60;;
11139;SDS011;5624;49.388;11.350;2022-11-11T01:03:03;7.50;;;4.60;;
11139;SDS011;5624;49.388;11.350;2022-11-11T01:05:29;6.70;;;5.17;;
11139;SDS011;5624;49.388;11.350;2022-11-11T01:07:55;7.30;;;5.07;;
11139;SDS011;5624;49.388;11.350;2022-11-11T01:10:20;9.03;;;5.03;;
11139;SDS011;5624;49.388;11.350;2022-11-11T01:13:51;8.37;;;4.80;;
11139;SDS011;5624;49.388;11.350;2022-11-11T01:15:59;10.73;;;5.13;;
11139;SDS011;5624;49.388;11.350;2022-11-11T01:18:26;8.53;;;5.30;;
11139;SDS011;5624;49.388;11.350;2022-11-11T01:21:03;9.40;;;4.73;;
11139;SDS011;5624;49.388;11.350;2022-11-11T01:23:32;8.37;;;5.30;;
11139;SDS011;5624;49.388;11.350;2022-11-11T01:26:01;12.17;;;5.53;;
11139;SDS011;5624;49.388;11.350;2022-11-11T01:28:31;11.03;;;5.33;;
11139;SDS011;5624;49.388;11.350;2022-11-11T01:31:04;9.20;;;4.70;;
11139;SDS011;5624;49.388;11.350;2022-11-11T01:33:35;10.30;;;5.13;;
11139;SDS011;5624;49.388;11.350;2022-11-11T01:36:04;8.07;;;4.87;;
11139;SDS011;5624;49.388;11.350;2022-11-11T01:38:30;8.70;;;5.00;;
11139;SDS011;5624;49.388;11.350;2022-11-11T01:40:56;6.73;;;4.83;;
11139;SDS011;5624;49.388;11.350;2022-11-11T01:43:22;7.13;;;4.60;;
11139;SDS011;5624;49.388;11.350;2022-11-11T01:48:26;6.43;;;4.83;;
11139;SDS011;5624;49.388;11.350;2022-11-11T01:51:23;9.73;;;5.43;;
11139;SDS011;5624;49.388;11.350;2022-11-11T01:53:58;8.37;;;5.43;;
11139;SDS011;5624;49.388;11.350;2022-11-11T01:56:28;9.17;;;6.03;;
11139;SDS011;5624;49.388;11.350;2022-11-11T01:58:54;8.67;;;5.57;;
11139;SDS011;5624;49.388;11.350;2022-11-11T02:01:25;10.70;;;5.80;;
11139;SDS011;5624;49.388;11.350;2022-11-11T02:03:51;9.73;;;5.13;;
11139;SDS011;5624;49.388;11.350;2022-11-11T02:06:37;9.03;;;5.27;;
11139;SDS011;5624;49.388;11.350;2022-11-11T02:09:03;8.70;;;5.33;;
11139;SDS011;5624;49.388;11.350;2022-11-11T02:11:31;8.37;;;5.30;;
11139;SDS011;5624;49.388;11.350;2022-11-11T02:14:31;14.23;;;6.20;;
11139;SDS011;5624;49.388;11.350;2022-11-11T02:17:05;8.10;;;4.97;;
11139;SDS011;5624;49.388;11.350;2022-11-11T02:22:03;10.70;;;5.90;;
11139;SDS011;5624;49.388;11.350;2022-11-11T02:24:32;11.17;;;6.87;;
11139;SDS011;5624;49.388;11.350;2022-11-11T02:26:58;8.37;;;5.33;;
11139;SDS011;5624;49.388;11.350;2022-11-11T02:29:25;8.50;;;5.43;;
11139;SDS011;5624;49.388;11.350;2022-11-11T02:31:52;12.63;;;5.97;;
11139;SDS011;5624;49.388;11.350;2022-11-11T02:34:19;10.07;;;5.67;;
11139;SDS011;5624;49.388;11.350;2022-11-11T02:36:44;8.77;;;6.00;;
11139;SDS011;5624;49.388;11.350;2022-11-11T02:39:10;7.73;;;5.93;;
11139;SDS011;5624;49.388;11.350;2022-11-11T02:41:36;11.33;;;6.27;;
11139;SDS011;5624;49.388;11.350;2022-11-11T02:44:20;9.33;;;6.30;;
11139;SDS011;5624;49.388;11.350;2022-11-11T02:46:46;12.70;;;5.60;;
11139;SDS011;5624;49.388;11.350;2022-11-11T02:49:11;10.53;;;5.83;;
11139;SDS011;5624;49.388;11.350;2022-11-11T02:51:37;11.87;;;6.03;;
11139;SDS011;5624;49.388;11.350;2022-11-11T02:54:02;11.77;;;6.20;;
11139;SDS011;5624;49.388;11.350;2022-11-11T02:56:28;11.00;;;6.50;;
11139;SDS011;5624;49.388;11.350;2022-11-11T02:59:12;10.40;;;6.63;;
11139;SDS011;5624;49.388;11.350;2022-11-11T03:01:38;11.70;;;6.30;;
11139;SDS011;5624;49.388;11.350;2022-11-11T03:04:04;13.30;;;5.43;;
11139;SDS011;5624;49.388;11.350;2022-11-11T03:06:30;12.80;;;6.37;;
11139;SDS011;5624;49.388;11.350;2022-11-11T03:08:55;12.57;;;5.97;;
11139;SDS011;5624;49.388;11.350;2022-11-11T03:11:21;9.80;;;6.23;;
11139;SDS011;5624;49.388;11.350;2022-11-11T03:13:53;10.17;;;6.00;;
11139;SDS011;5624;49.388;11.350;2022-11-11T03:16:19;10.77;;;5.63;;
11139;SDS011;5624;49.388;11.350;2022-11-11T03:19:11;11.13;;;6.70;;
11139;SDS011;5624;49.388;11.350;2022-11-11T03:21:37;10.40;;;6.60;;
11139;SDS011;5624;49.388;11.350;2022-11-11T03:24:02;10.80;;;6.10;;
11139;SDS011;5624;49.388;11.350;2022-11-11T03:26:28;12.57;;;6.60;;
11139;SDS011;5624;49.388;11.350;2022-11-11T03:28:53;10.73;;;6.33;;
11139;SDS011;5624;49.388;11.350;2022-11-11T03:31:19;10.03;;;6.67;;
11139;SDS011;5624;49.388;11.350;2022-11-11T03:33:45;12.63;;;7.27;;
11139;SDS011;5624;49.388;11.350;2022-11-11T03:36:11;12.07;;;6.10;;
11139;SDS011;5624;49.388;11.350;2022-11-11T03:38:36;11.93;;;7.13;;
11139;SDS011;5624;49.388;11.350;2022-11-11T03:41:02;9.07;;;6.57;;
11139;SDS011;5624;49.388;11.350;2022-11-11T03:43:30;8.57;;;6.70;;
11139;SDS011;5624;49.388;11.350;2022-11-11T03:45:58;11.77;;;7.03;;
11139;SDS011;5624;49.388;11.350;2022-11-11T03:48:26;9.27;;;6.10;;
11139;SDS011;5624;49.388;11.350;2022-11-11T03:50:53;11.67;;;7.53;;
11139;SDS011;5624;49.388;11.350;2022-11-11T03:53:19;11.27;;;6.77;;
11139;SDS011;5624;49.388;11.350;2022-11-11T03:55:45;11.97;;;7.13;;
11139;SDS011;5624;49.388;11.350;2022-11-11T03:58:12;15.63;;;7.10;;
11139;SDS011;5624;49.388;11.350;2022-11-11T04:00:37;11.23;;;7.17;;
11139;SDS011;5624;49.388;11.350;2022-11-11T04:05:52;10.07;;;6.67;;
11139;SDS011;5624;49.388;11.350;2022-11-11T04:08:36;9.27;;;6.20;;
11139;SDS011;5624;49.388;11.350;2022-11-11T04:11:24;10.60;;;6.23;;
11139;SDS011;5624;49.388;11.350;2022-11-11T04:13:53;12.53;;;6.67;;
11139;SDS011;5624;49.388;11.350;2022-11-11T04:16:41;10.17;;;6.80;;
11139;SDS011;5624;49.388;11.350;2022-11-11T04:19:07;10.77;;;6.87;;
11139;SDS011;5624;49.388;11.350;2022-11-11T04:21:51;12.73;;;7.07;;
11139;SDS011;5624;49.388;11.350;2022-11-11T04:24:20;12.20;;;7.73;;
11139;SDS011;5624;49.388;11.350;2022-11-11T04:27:08;11.07;;;7.17;;
11139;SDS011;5624;49.388;11.350;2022-11-11T04:29:35;15.37;;;8.30;;
11139;SDS011;5624;49.388;11.350;2022-11-11T04:34:51;14.47;;;7.73;;
11139;SDS011;5624;49.388;11.350;2022-11-11T04:37:20;14.97;;;9.33;;
11139;SDS011;5624;49.388;11.350;2022-11-11T04:39:47;13.17;;;9.30;;
11139;SDS011;5624;49.388;11.350;2022-11-11T04:42:32;13.60;;;8.93;;
11139;SDS011;5624;49.388;11.350;2022-11-11T04:45:01;16.23;;;8.87;;
11139;SDS011;5624;49.388;11.350;2022-11-11T04:53:01;12.27;;;7.97;;
11139;SDS011;5624;49.388;11.350;2022-11-11T04:55:28;14.80;;;8.20;;
11139;SDS011;5624;49.388;11.350;2022-11-11T04:58:13;15.57;;;8.43;;
11139;SDS011;5624;49.388;11.350;2022-11-11T05:00:40;12.90;;;8.03;;
11139;SDS011;5624;49.388;11.350;2022-11-11T05:03:06;12.53;;;7.83;;
11139;SDS011;5624;49.388;11.350;2022-11-11T05:05:43;13.10;;;8.77;;
11139;SDS011;5624;49.388;11.350;2022-11-11T05:08:35;13.70;;;8.93;;
11139;SDS011;5624;49.388;11.350;2022-11-11T05:11:21;15.97;;;8.50;;
11139;SDS011;5624;49.388;11.350;2022-11-11T05:13:48;13.37;;;7.47;;
11139;SDS011;5624;49.388;11.350;2022-11-11T05:16:35;13.10;;;8.43;;
11139;SDS011;5624;49.388;11.350;2022-11-11T05:19:22;13.70;;;8.87;;
11139;SDS011;5624;49.388;11.350;2022-11-11T05:22:16;17.03;;;8.70;;
11139;SDS011;5624;49.388;11.350;2022-11-11T05:24:47;16.73;;;9.53;;
11139;SDS011;5624;49.388;11.350;2022-11-11T05:27:31;17.33;;;9.20;;
11139;SDS011;5624;49.388;11.350;2022-11-11T05:29:57;13.83;;;8.83;;
11139;SDS011;5624;49.388;11.350;2022-11-11T05:32:23;13.63;;;9.63;;
11139;SDS011;5624;49.388;11.350;2022-11-11T05:34:49;13.93;;;8.87;;
11139;SDS011;5624;49.388;11.350;2022-11-11T05:37:15;14.33;;;9.47;;
11139;SDS011;5624;49.388;11.350;2022-11-11T05:39:41;18.87;;;10.00;;
11139;SDS011;5624;49.388;11.350;2022-11-11T05:42:07;14.83;;;10.00;;
11139;SDS011;5624;49.388;11.350;2022-11-11T05:44:33;17.17;;;10.07;;
11139;SDS011;5624;49.388;11.350;2022-11-11T05:46:59;15.80;;;9.80;;
11139;SDS011;5624;49.388;11.350;2022-11-11T05:49:25;14.37;;;9.17;;
11139;SDS011;5624;49.388;11.350;2022-11-11T05:51:51;15.80;;;10.33;;
11139;SDS011;5624;49.388;11.350;2022-11-11T05:54:17;14.87;;;9.73;;
11139;SDS011;5624;49.388;11.350;2022-11-11T05:56:43;15.57;;;9.73;;
11139;SDS011;5624;49.388;11.350;2022-11-11T05:59:09;15.50;;;10.47;;
11139;SDS011;5624;49.388;11.350;2022-11-11T06:01:35;15.87;;;9.73;;
11139;SDS011;5624;49.388;11.350;2022-11-11T06:04:01;14.87;;;9.70;;
11139;SDS011;5624;49.388;11.350;2022-11-11T06:06:27;14.80;;;8.70;;
11139;SDS011;5624;49.388;11.350;2022-11-11T06:08:53;14.17;;;9.27;;
11139;SDS011;5624;49.388;11.350;2022-11-11T06:11:19;12.73;;;8.83;;
11139;SDS011;5624;49.388;11.350;2022-11-11T06:13:46;13.90;;;8.97;;
11139;SDS011;5624;49.388;11.350;2022-11-11T06:16:12;14.53;;;9.57;;
11139;SDS011;5624;49.388;11.350;2022-11-11T06:18:38;14.70;;;9.53;;
11139;SDS011;5624;49.388;11.350;2022-11-11T06:21:04;17.23;;;9.67;;
11139;SDS011;5624;49.388;11.350;2022-11-11T06:23:30;19.30;;;9.37;;
11139;SDS011;5624;49.388;11.350;2022-11-11T06:25:56;16.60;;;10.07;;
11139;SDS011;5624;49.388;11.350;2022-11-11T06:28:37;15.37;;;9.80;;
11139;SDS011;5624;49.388;11.350;2022-11-11T06:31:04;17.67;;;9.83;;
11139;SDS011;5624;49.388;11.350;2022-11-11T06:33:31;18.47;;;10.03;;
11139;SDS011;5624;49.388;11.350;2022-11-11T06:35:59;18.17;;;9.97;;
11139;SDS011;5624;49.388;11.350;2022-11-11T06:38:25;14.73;;;9.43;;
11139;SDS011;5624;49.388;11.350;2022-11-11T06:40:51;15.60;;;9.87;;
11139;SDS011;5624;49.388;11.350;2022-11-11T06:43:16;18.17;;;10.67;;
11139;SDS011;5624;49.388;11.350;2022-11-11T06:45:42;15.10;;;10.00;;
11139;SDS011;5624;49.388;11.350;2022-11-11T06:48:09;20.50;;;11.13;;
11139;SDS011;5624;49.388;11.350;2022-11-11T06:50:35;22.33;;;11.20;;
11139;SDS011;5624;49.388;11.350;2022-11-11T06:53:04;17.67;;;11.30;;
11139;SDS011;5624;49.388;11.350;2022-11-11T06:55:30;16.33;;;9.83;;
11139;SDS011;5624;49.388;11.350;2022-11-11T06:58:08;18.67;;;10.70;;
11139;SDS011;5624;49.388;11.350;2022-11-11T07:00:34;15.53;;;11.00;;
11139;SDS011;5624;49.388;11.350;2022-11-11T07:03:04;20.70;;;11.70;;
11139;SDS011;5624;49.388;11.350;2022-11-11T07:05:33;17.03;;;10.83;;
11139;SDS011;5624;49.388;11.350;2022-11-11T07:08:02;19.60;;;10.30;;
11139;SDS011;5624;49.388;11.350;2022-11-11T07:10:30;14.47;;;10.77;;
11139;SDS011;5624;49.388;11.350;2022-11-11T07:12:57;16.27;;;9.40;;
11139;SDS011;5624;49.388;11.350;2022-11-11T07:15:23;11.73;;;8.87;;
11139;SDS011;5624;49.388;11.350;2022-11-11T07:17:49;15.63;;;9.50;;
11139;SDS011;5624;49.388;11.350;2022-11-11T07:20:15;15.67;;;9.50;;
11139;SDS011;5624;49.388;11.350;2022-11-11T07:22:41;15.80;;;10.03;;
11139;SDS011;5624;49.388;11.350;2022-11-11T07:25:06;16.40;;;9.67;;
11139;SDS011;5624;49.388;11.350;2022-11-11T07:27:35;18.70;;;10.97;;
11139;SDS011;5624;49.388;11.350;2022-11-11T07:30:02;14.67;;;9.30;;
11139;SDS011;5624;49.388;11.350;2022-11-11T07:32:29;16.27;;;10.10;;
11139;SDS011;5624;49.388;11.350;2022-11-11T07:34:54;13.27;;;9.63;;
11139;SDS011;5624;49.388;11.350;2022-11-11T07:37:20;16.40;;;9.20;;
11139;SDS011;5624;49.388;11.350;2022-11-11T07:39:45;15.00;;;9.83;;
11139;SDS011;5624;49.388;11.350;2022-11-11T07:42:11;14.17;;;10.07;;
11139;SDS011;5624;49.388;11.350;2022-11-11T07:44:37;15.03;;;9.30;;
11139;SDS011;5624;49.388;11.350;2022-11-11T07:47:02;13.87;;;9.17;;
11139;SDS011;5624;49.388;11.350;2022-11-11T07:49:28;11.97;;;8.73;;
11139;SDS011;5624;49.388;11.350;2022-11-11T07:51:54;13.23;;;9.00;;
11139;SDS011;5624;49.388;11.350;2022-11-11T07:54:19;11.77;;;9.27;;
11139;SDS011;5624;49.388;11.350;2022-11-11T07:56:45;13.30;;;9.07;;
11139;SDS011;5624;49.388;11.350;2022-11-11T07:59:11;13.83;;;9.73;;
11139;SDS011;5624;49.388;11.350;2022-11-11T08:01:36;13.23;;;9.60;;
11139;SDS011;5624;49.388;11.350;2022-11-11T08:04:02;10.20;;;8.67;;
11139;SDS011;5624;49.388;11.350;2022-11-11T08:06:28;14.10;;;8.43;;
11139;SDS011;5624;49.388;11.350;2022-11-11T08:08:54;11.27;;;7.67;;
11139;SDS011;5624;49.388;11.350;2022-11-11T08:11:20;11.87;;;8.23;;
11139;SDS011;5624;49.388;11.350;2022-11-11T08:14:05;9.73;;;7.13;;
11139;SDS011;5624;49.388;11.350;2022-11-11T08:16:31;7.90;;;7.10;;
11139;SDS011;5624;49.388;11.350;2022-11-11T08:18:57;9.97;;;7.50;;
11139;SDS011;5624;49.388;11.350;2022-11-11T08:21:22;11.03;;;7.50;;
11139;SDS011;5624;49.388;11.350;2022-11-11T08:23:49;9.30;;;7.10;;
11139;SDS011;5624;49.388;11.350;2022-11-11T08:26:16;7.73;;;6.93;;
11139;SDS011;5624;49.388;11.350;2022-11-11T08:28:42;9.07;;;7.03;;
11139;SDS011;5624;49.388;11.350;2022-11-11T08:31:08;13.70;;;8.23;;
11139;SDS011;5624;49.388;11.350;2022-11-11T08:33:34;9.83;;;6.80;;
11139;SDS011;5624;49.388;11.350;2022-11-11T08:36:00;10.90;;;8.00;;
11139;SDS011;5624;49.388;11.350;2022-11-11T08:38:27;10.13;;;7.40;;
11139;SDS011;5624;49.388;11.350;2022-11-11T08:40:53;13.40;;;7.50;;
11139;SDS011;5624;49.388;11.350;2022-11-11T08:43:19;11.20;;;7.63;;
11139;SDS011;5624;49.388;11.350;2022-11-11T08:45:46;11.93;;;7.30;;
11139;SDS011;5624;49.388;11.350;2022-11-11T08:48:12;9.17;;;6.93;;
11139;SDS011;5624;49.388;11.350;2022-11-11T08:50:38;9.30;;;7.00;;
11139;SDS011;5624;49.388;11.350;2022-11-11T08:53:06;9.40;;;7.17;;
11139;SDS011;5624;49.388;11.350;2022-11-11T08:55:33;8.97;;;7.50;;
11139;SDS011;5624;49.388;11.350;2022-11-11T08:58:00;9.07;;;6.83;;
11139;SDS011;5624;49.388;11.350;2022-11-11T09:00:28;12.63;;;7.13;;
11139;SDS011;5624;49.388;11.350;2022-11-11T09:02:59;9.30;;;6.53;;
11139;SDS011;5624;49.388;11.350;2022-11-11T09:05:29;8.43;;;6.90;;
11139;SDS011;5624;49.388;11.350;2022-11-11T09:07:55;9.37;;;6.90;;
11139;SDS011;5624;49.388;11.350;2022-11-11T09:10:24;9.60;;;6.93;;
11139;SDS011;5624;49.388;11.350;2022-11-11T09:12:54;8.87;;;6.53;;
11139;SDS011;5624;49.388;11.350;2022-11-11T09:15:21;10.43;;;6.83;;
11139;SDS011;5624;49.388;11.350;2022-11-11T09:17:46;7.80;;;6.73;;
11139;SDS011;5624;49.388;11.350;2022-11-11T09:20:12;9.13;;;6.70;;
11139;SDS011;5624;49.388;11.350;2022-11-11T09:22:42;9.50;;;7.10;;
11139;SDS011;5624;49.388;11.350;2022-11-11T09:25:08;11.57;;;7.27;;
11139;SDS011;5624;49.388;11.350;2022-11-11T09:27:34;12.87;;;8.10;;
11139;SDS011;5624;49.388;11.350;2022-11-11T09:30:00;11.97;;;7.57;;
11139;SDS011;5624;49.388;11.350;2022-11-11T09:32:26;8.53;;;6.97;;
11139;SDS011;5624;49.388;11.350;2022-11-11T09:34:51;10.87;;;7.60;;
11139;SDS011;5624;49.388;11.350;2022-11-11T09:37:19;9.33;;;7.33;;
11139;SDS011;5624;49.388;11.350;2022-11-11T09:39:46;11.17;;;7.93;;
11139;SDS011;5624;49.388;11.350;2022-11-11T09:50:47;10.67;;;6.67;;
11139;SDS011;5624;49.388;11.350;2022-11-11T09:55:57;10.30;;;6.83;;
11139;SDS011;5624;49.388;11.350;2022-11-11T09:58:36;8.87;;;6.13;;
11139;SDS011;5624;49.388;11.350;2022-11-11T10:01:15;7.57;;;5.30;;
11139;SDS011;5624;49.388;11.350;2022-11-11T10:03:57;8.37;;;5.60;;
11139;SDS011;5624;49.388;11.350;2022-11-11T10:06:30;8.53;;;6.10;;
11139;SDS011;5624;49.388;11.350;2022-11-11T10:08:58;9.07;;;5.87;;
11139;SDS011;5624;49.388;11.350;2022-11-11T10:11:43;9.93;;;5.93;;
11139;SDS011;5624;49.388;11.350;2022-11-11T10:14:17;7.60;;;6.17;;
11139;SDS011;5624;49.388;11.350;2022-11-11T10:16:47;9.13;;;6.10;;
11139;SDS011;5624;49.388;11.350;2022-11-11T10:19:32;7.63;;;6.20;;
11139;SDS011;5624;49.388;11.350;2022-11-11T10:22:05;7.97;;;5.23;;
11139;SDS011;5624;49.388;11.350;2022-11-11T10:24:45;7.03;;;5.37;;
11139;SDS011;5624;49.388;11.350;2022-11-11T10:27:21;6.97;;;5.40;;
11139;SDS011;5624;49.388;11.350;2022-11-11T10:29:47;7.93;;;5.17;;
11139;SDS011;5624;49.388;11.350;2022-11-11T10:32:35;7.05;;;5.22;;
11139;SDS011;5624;49.388;11.350;2022-11-11T10:35:19;7.30;;;5.55;;
11139;SDS011;5624;49.388;11.350;2022-11-11T10:37:55;9.47;;;5.87;;
11139;SDS011;5624;49.388;11.350;2022-11-11T10:40:40;9.23;;;5.77;;
11139;SDS011;5624;49.388;11.350;2022-11-11T10:48:44;7.43;;;5.93;;
11139;SDS011;5624;49.388;11.350;2022-11-11T10:51:24;8.88;;;6.53;;
11139;SDS011;5624;49.388;11.350;2022-11-11T10:53:58;7.37;;;5.70;;
11139;SDS011;5624;49.388;11.350;2022-11-11T10:56:36;8.30;;;5.70;;
11139;SDS011;5624;49.388;11.350;2022-11-11T10:59:19;8.38;;;6.25;;
11139;SDS011;5624;49.388;11.350;2022-11-11T11:02:00;8.07;;;6.03;;
11139;SDS011;5624;49.388;11.350;2022-11-11T11:04:39;9.93;;;6.77;;
11139;SDS011;5624;49.388;11.350;2022-11-11T11:07:10;9.40;;;7.17;;
11139;SDS011;5624;49.388;11.350;2022-11-11T11:12:29;9.18;;;6.13;;
11139;SDS011;5624;49.388;11.350;2022-11-11T11:15:07;7.05;;;4.93;;
11139;SDS011;5624;49.388;11.350;2022-11-11T11:20:30;9.25;;;5.38;;
11139;SDS011;5624;49.388;11.350;2022-11-11T11:22:56;7.05;;;4.95;;
11139;SDS011;5624;49.388;11.350;2022-11-11T11:25:27;7.93;;;4.65;;
11139;SDS011;5624;49.388;11.350;2022-11-11T11:28:05;6.43;;;3.40;;
11139;SDS011;5624;49.388;11.350;2022-11-11T11:30:35;7.22;;;3.88;;
11139;SDS011;5624;49.388;11.350;2022-11-11T11:33:02;4.53;;;3.25;;
11139;SDS011;5624;49.388;11.350;2022-11-11T11:38:06;4.05;;;3.38;;
11139;SDS011;5624;49.388;11.350;2022-11-11T11:40:53;5.40;;;2.90;;
11139;SDS011;5624;49.388;11.350;2022-11-11T11:43:23;5.60;;;2.60;;
11139;SDS011;5624;49.388;11.350;2022-11-11T11:46:19;3.90;;;2.42;;
11139;SDS011;5624;49.388;11.350;2022-11-11T11:51:31;4.93;;;2.58;;
11139;SDS011;5624;49.388;11.350;2022-11-11T11:54:20;4.05;;;2.42;;
11139;SDS011;5624;49.388;11.350;2022-11-11T12:00:01;3.42;;;1.83;;
11139;SDS011;5624;49.388;11.350;2022-11-11T12:05:22;2.53;;;1.95;;
11139;SDS011;5624;49.388;11.350;2022-11-11T12:08:05;3.25;;;1.95;;
11139;SDS011;5624;49.388;11.350;2022-11-11T12:10:46;4.38;;;2.20;;
11139;SDS011;5624;49.388;11.350;2022-11-11T12:21:34;4.70;;;2.13;;
11139;SDS011;5624;49.388;11.350;2022-11-11T12:30:00;3.17;;;2.00;;
11139;SDS011;5624;49.388;11.350;2022-11-11T12:35:22;4.07;;;2.20;;
11139;SDS011;5624;49.388;11.350;2022-11-11T12:43:58;5.07;;;2.35;;
11139;SDS011;5624;49.388;11.350;2022-11-11T12:57:21;4.50;;;2.93;;
11139;SDS011;5624;49.388;11.350;2022-11-11T13:00:04;4.57;;;2.70;;
11139;SDS011;5624;49.388;11.350;2022-11-11T13:13:54;6.73;;;3.27;;
11139;SDS011;5624;49.388;11.350;2022-11-11T13:16:24;7.23;;;3.10;;
11139;SDS011;5624;49.388;11.350;2022-11-11T13:21:43;5.03;;;3.42;;
11139;SDS011;5624;49.388;11.350;2022-11-11T13:24:14;7.55;;;4.57;;
11139;SDS011;5624;49.388;11.350;2022-11-11T13:27:28;6.27;;;4.03;;
11139;SDS011;5624;49.388;11.350;2022-11-11T13:35:22;5.00;;;3.57;;
11139;SDS011;5624;49.388;11.350;2022-11-11T13:37:59;5.53;;;3.77;;
11139;SDS011;5624;49.388;11.350;2022-11-11T13:42:59;6.37;;;3.80;;
11139;SDS011;5624;49.388;11.350;2022-11-11T13:45:33;4.80;;;3.50;;
11139;SDS011;5624;49.388;11.350;2022-11-11T13:48:02;7.03;;;3.37;;
11139;SDS011;5624;49.388;11.350;2022-11-11T13:50:34;6.63;;;3.20;;
11139;SDS011;5624;49.388;11.350;2022-11-11T13:53:05;4.57;;;3.67;;
11139;SDS011;5624;49.388;11.350;2022-11-11T13:58:05;6.23;;;3.60;;
11139;SDS011;5624;49.388;11.350;2022-11-11T14:00:35;7.57;;;5.30;;
11139;SDS011;5624;49.388;11.350;2022-11-11T14:05:44;8.83;;;5.83;;
11139;SDS011;5624;49.388;11.350;2022-11-11T14:08:42;10.47;;;6.40;;
11139;SDS011;5624;49.388;11.350;2022-11-11T14:21:49;8.10;;;6.40;;
11139;SDS011;5624;49.388;11.350;2022-11-11T14:29:37;10.23;;;7.60;;
11139;SDS011;5624;49.388;11.350;2022-11-11T14:32:34;10.07;;;7.20;;
11139;SDS011;5624;49.388;11.350;2022-11-11T14:40:32;9.67;;;7.63;;
11139;SDS011;5624;49.388;11.350;2022-11-11T14:42:59;12.37;;;7.67;;
11139;SDS011;5624;49.388;11.350;2022-11-11T14:54:23;11.97;;;7.70;;
11139;SDS011;5624;49.388;11.350;2022-11-11T14:57:01;9.97;;;6.67;;
11139;SDS011;5624;49.388;11.350;2022-11-11T14:59:31;8.17;;;6.57;;
11139;SDS011;5624;49.388;11.350;2022-11-11T15:01:58;11.77;;;9.00;;
11139;SDS011;5624;49.388;11.350;2022-11-11T15:04:26;11.47;;;8.40;;
11139;SDS011;5624;49.388;11.350;2022-11-11T15:07:00;13.50;;;8.67;;
11139;SDS011;5624;49.388;11.350;2022-11-11T15:12:25;14.00;;;9.43;;
11139;SDS011;5624;49.388;11.350;2022-11-11T15:15:08;14.97;;;9.53;;
11139;SDS011;5624;49.388;11.350;2022-11-11T15:25:20;10.90;;;7.37;;
11139;SDS011;5624;49.388;11.350;2022-11-11T15:27:49;13.27;;;8.73;;
11139;SDS011;5624;49.388;11.350;2022-11-11T15:30:20;12.13;;;9.20;;
11139;SDS011;5624;49.388;11.350;2022-11-11T15:36:02;12.63;;;7.63;;
11139;SDS011;5624;49.388;11.350;2022-11-11T15:38:33;9.43;;;6.67;;
11139;SDS011;5624;49.388;11.350;2022-11-11T15:40:59;10.10;;;8.13;;
11139;SDS011;5624;49.388;11.350;2022-11-11T15:43:32;10.43;;;7.10;;
11139;SDS011;5624;49.388;11.350;2022-11-11T15:46:02;10.50;;;7.37;;
11139;SDS011;5624;49.388;11.350;2022-11-11T15:48:37;11.37;;;7.73;;
11139;SDS011;5624;49.388;11.350;2022-11-11T15:51:15;10.80;;;8.23;;
11139;SDS011;5624;49.388;11.350;2022-11-11T15:53:52;11.73;;;8.03;;
11139;SDS011;5624;49.388;11.350;2022-11-11T15:56:28;9.20;;;7.30;;
11139;SDS011;5624;49.388;11.350;2022-11-11T15:58:55;9.17;;;6.80;;
11139;SDS011;5624;49.388;11.350;2022-11-11T16:01:21;12.27;;;7.00;;
11139;SDS011;5624;49.388;11.350;2022-11-11T16:03:50;10.27;;;6.97;;
11139;SDS011;5624;49.388;11.350;2022-11-11T16:06:17;10.97;;;7.87;;
11139;SDS011;5624;49.388;11.350;2022-11-11T16:08:43;10.77;;;7.27;;
11139;SDS011;5624;49.388;11.350;2022-11-11T16:11:14;10.20;;;7.80;;
11139;SDS011;5624;49.388;11.350;2022-11-11T16:13:47;10.50;;;8.53;;
11139;SDS011;5624;49.388;11.350;2022-11-11T16:16:27;10.67;;;8.07;;
11139;SDS011;5624;49.388;11.350;2022-11-11T16:18:57;9.27;;;7.23;;
11139;SDS011;5624;49.388;11.350;2022-11-11T16:21:39;9.30;;;6.67;;
11139;SDS011;5624;49.388;11.350;2022-11-11T16:24:24;9.90;;;7.17;;
11139;SDS011;5624;49.388;11.350;2022-11-11T16:26:52;8.67;;;6.97;;
11139;SDS011;5624;49.388;11.350;2022-11-11T16:29:18;10.87;;;8.20;;
11139;SDS011;5624;49.388;11.350;2022-11-11T16:31:46;9.27;;;7.50;;
11139;SDS011;5624;49.388;11.350;2022-11-11T16:39:28;15.70;;;9.57;;
11139;SDS011;5624;49.388;11.350;2022-11-11T16:41:56;12.10;;;9.27;;
11139;SDS011;5624;49.388;11.350;2022-11-11T16:47:37;13.73;;;9.10;;
11139;SDS011;5624;49.388;11.350;2022-11-11T16:57:49;17.63;;;10.60;;
11139;SDS011;5624;49.388;11.350;2022-11-11T17:00:16;13.87;;;11.83;;
11139;SDS011;5624;49.388;11.350;2022-11-11T17:02:44;15.90;;;11.77;;
11139;SDS011;5624;49.388;11.350;2022-11-11T17:05:10;19.70;;;15.00;;
11139;SDS011;5624;49.388;11.350;2022-11-11T17:07:37;23.50;;;18.73;;
11139;SDS011;5624;49.388;11.350;2022-11-11T17:12:33;15.47;;;13.83;;
11139;SDS011;5624;49.388;11.350;2022-11-11T17:15:01;18.13;;;13.90;;
11139;SDS011;5624;49.388;11.350;2022-11-11T17:17:30;18.73;;;13.63;;
11139;SDS011;5624;49.388;11.350;2022-11-11T17:19:58;19.47;;;11.93;;
11139;SDS011;5624;49.388;11.350;2022-11-11T17:22:32;19.27;;;11.27;;
11139;SDS011;5624;49.388;11.350;2022-11-11T17:24:58;18.20;;;11.23;;
11139;SDS011;5624;49.388;11.350;2022-11-11T17:27:24;15.10;;;9.90;;
11139;SDS011;5624;49.388;11.350;2022-11-11T17:29:52;20.20;;;14.90;;
11139;SDS011;5624;49.388;11.350;2022-11-11T17:32:18;21.83;;;12.03;;
11139;SDS011;5624;49.388;11.350;2022-11-11T17:34:43;18.03;;;12.40;;
11139;SDS011;5624;49.388;11.350;2022-11-11T17:37:09;18.70;;;11.97;;
11139;SDS011;5624;49.388;11.350;2022-11-11T17:39:35;19.10;;;10.63;;
11139;SDS011;5624;49.388;11.350;2022-11-11T17:42:00;14.20;;;9.60;;
11139;SDS011;5624;49.388;11.350;2022-11-11T17:44:26;13.20;;;9.80;;
11139;SDS011;5624;49.388;11.350;2022-11-11T17:46:51;19.20;;;11.37;;
11139;SDS011;5624;49.388;11.350;2022-11-11T17:49:17;16.37;;;10.50;;
11139;SDS011;5624;49.388;11.350;2022-11-11T17:51:42;13.40;;;10.97;;